This is the latest recevied weather packets stored in our database for station/object VK5KJP. If no packets are shown the sender has not sent any weather packets the latest 10 day(s).
| Time | Temp. | Humidity | Pressure | Rain* | Wind** | Luminosity | Snow |
|---|---|---|---|---|---|---|---|
| 1777573565 | 15.56° C | 60% | 1018.4 hPa | 0 mm | - | - | - |
| 1777572345 | 15.56° C | 59% | 1018.5 hPa | 0 mm | - | - | - |
| 1777571739 | 15.56° C | 58% | 1018.5 hPa | 0 mm | - | - | - |
| 1777571145 | 16.11° C | 56% | 1018.7 hPa | 0 mm | - | - | - |
| 1777568729 | 17.22° C | 50% | 1019.1 hPa | 0 mm | - | - | - |
| 1777555565 | 16.11° C | 47% | 1020.5 hPa | 0 mm | - | - | - |
| 1777554385 | 16.11° C | 47% | 1020.7 hPa | 0 mm | - | - | - |
| 1777552545 | 16.67° C | 42% | 1020.9 hPa | 0 mm | - | - | - |
| 1777550760 | 16.67° C | 42% | 1020.8 hPa | 0 mm | - | - | - |
| 1777543529 | 22.22° C | 29% | 1020 hPa | 0 mm | - | - | - |
| 1777542944 | 21.67° C | 29% | 1019.9 hPa | 0 mm | - | - | - |
| 1777541745 | 21.67° C | 29% | 1019.8 hPa | 0 mm | - | - | - |
| 1777539945 | 22.22° C | 28% | 1019.6 hPa | 0 mm | - | - | - |
| 1777538745 | 22.78° C | 27% | 1019.5 hPa | 0 mm | - | - | - |
| 1777538160 | 23.33° C | 27% | 1019.4 hPa | 0 mm | - | - | - |
| 1777532744 | 28.89° C | 21% | 1019.2 hPa | 0 mm | - | - | - |
| 1777532120 | 28.89° C | 21% | 1019.2 hPa | 0 mm | - | - | - |
| 1777530930 | 28.89° C | 21% | 1019.3 hPa | 0 mm | - | - | - |
| 1777528545 | 29.44° C | 19% | 1019.4 hPa | 0 mm | - | - | - |
| 1777523158 | 28.89° C | 20% | 1020 hPa | 0 mm | - | - | - |
| 1777518957 | 29.44° C | 20% | 1021.2 hPa | 0 mm | - | - | - |
| 1777518333 | 28.89° C | 20% | 1021.3 hPa | 0 mm | - | - | - |
| 1777510556 | 26.11° C | 24% | 1023.1 hPa | 0 mm | - | - | - |
| 1777509356 | 26.11° C | 24% | 1023.3 hPa | 0 mm | - | - | - |
| 1777505159 | 23.33° C | 34% | 1023.8 hPa | 0 mm | - | - | - |
* Rain latest hour (hover to see other rain measurements)
** Current wind speed in m/s (hover to see current wind gust speed)